Time;durP1;ratioP1;P1;durP2;ratioP2;P2;SDS_P1;SDS_P2;PMS_P1;PMS_P2;Temp;Humidity;BMP_temperature;BMP_pressure;BME280_temperature;BME280_humidity;BME280_pressure;Samples;Min_cycle;Max_cycle;Signal;HPM_P1;HPM_P2
2022/07/12 00:02:04;;;;;;;5.30;0.70;;;;;;;13.51;60.63;99468.73;106549;1274;23150;-87
2022/07/12 00:12:20;;;;;;;2.90;0.70;;;;;;;13.29;60.78;99467.55;106355;1270;23963;-87
2022/07/12 00:18:33;;;;;;;2.90;0.50;;;;;;;13.31;60.99;99471.17;106571;1271;22818;-86
2022/07/12 00:21:03;;;;;;;2.50;0.70;;;;;;;13.32;60.97;99468.93;106267;1274;25307;-87
2022/07/12 00:23:49;;;;;;;7.70;0.70;;;;;;;13.35;61.04;99474.83;106431;1271;24265;-89
2022/07/12 00:26:30;;;;;;;5.20;0.70;;;;;;;13.34;60.90;99476.67;106297;1272;24239;-86
2022/07/12 00:32:31;;;;;;;3.30;1.00;;;;;;;13.39;60.95;99480.55;106022;1272;24284;-84
2022/07/12 00:35:55;;;;;;;3.30;1.00;;;;;;;13.45;60.93;99481.17;105763;1280;23013;-85
2022/07/12 00:39:14;;;;;;;5.60;0.90;;;;;;;13.49;61.04;99485.34;105919;1278;22579;-87
2022/07/12 00:42:27;;;;;;;4.00;0.80;;;;;;;13.51;61.01;99485.39;105962;1280;22733;-86
2022/07/12 00:45:18;;;;;;;5.20;0.90;;;;;;;13.53;60.96;99490.02;105881;1278;22542;-87
2022/07/12 00:47:54;;;;;;;6.00;1.10;;;;;;;13.53;61.01;99488.80;105949;1277;25274;-86
2022/07/12 00:54:43;;;;;;;3.80;0.80;;;;;;;13.49;60.91;99487.32;105682;1284;24223;-88
2022/07/12 00:57:43;;;;;;;4.20;1.00;;;;;;;13.52;61.03;99494.01;105461;1284;24441;-86
2022/07/12 01:04:36;;;;;;;3.90;0.80;;;;;;;13.51;61.05;99495.88;106526;1271;25289;-87
2022/07/12 01:07:14;;;;;;;4.20;1.00;;;;;;;13.48;61.19;99496.12;106278;1271;22639;-86
2022/07/12 01:10:11;;;;;;;3.90;0.80;;;;;;;13.44;61.20;99497.37;106544;1271;22535;-87
2022/07/12 01:13:51;;;;;;;5.20;1.40;;;;;;;13.33;61.26;99494.64;106014;1278;24230;-88
2022/07/12 01:20:52;;;;;;;7.40;1.10;;;;;;;13.23;61.48;99501.26;106382;1274;22537;-84
2022/07/12 01:23:54;;;;;;;5.40;1.00;;;;;;;13.21;61.46;99502.14;106329;1274;22528;-84
2022/07/12 01:27:08;;;;;;;4.20;0.80;;;;;;;13.20;61.53;99501.48;106103;1277;22605;-85
2022/07/12 01:29:59;;;;;;;5.40;0.80;;;;;;;13.21;61.53;99500.70;106235;1275;22550;-88
2022/07/12 01:32:44;;;;;;;5.60;0.90;;;;;;;13.21;61.51;99503.75;106450;1274;25232;-89
2022/07/12 01:36:03;;;;;;;4.00;0.80;;;;;;;13.20;61.68;99501.52;106361;1276;24451;-85
2022/07/12 01:38:43;;;;;;;3.10;0.80;;;;;;;13.17;61.65;99503.67;106460;1272;22625;-87
2022/07/12 01:41:30;;;;;;;;;;;;;;;;;;;;;
2022/07/12 01:52:07;;;;;;;4.40;1.20;;;;;;;13.02;61.85;99507.35;105904;1281;25343;-86
2022/07/12 01:58:48;;;;;;;3.70;0.70;;;;;;;13.09;62.00;99508.55;106348;1274;22542;-86
2022/07/12 02:01:44;;;;;;;2.90;0.70;;;;;;;13.05;62.02;99507.45;105604;1281;22606;-85
2022/07/12 02:04:50;;;;;;;4.10;0.80;;;;;;;13.05;62.14;99507.45;105759;1281;23548;-86
2022/07/12 02:07:48;;;;;;;3.70;0.90;;;;;;;13.04;62.15;99507.54;105575;1281;25276;-86
2022/07/12 02:10:32;;;;;;;6.00;0.90;;;;;;;12.99;62.23;99508.09;105660;1281;26250;-87
2022/07/12 02:14:40;;;;;;;3.60;1.10;;;;;;;12.92;62.23;99512.36;105783;1281;22558;-88
2022/07/12 02:17:26;;;;;;;3.70;0.80;;;;;;;12.91;62.29;99511.70;105001;1290;22563;-87
2022/07/12 02:24:24;;;;;;;4.00;1.00;;;;;;;12.92;62.26;99511.45;104785;1290;25269;-86
2022/07/12 02:27:11;;;;;;;3.40;0.70;;;;;;;12.92;62.55;99510.02;104977;1291;22635;-85
2022/07/12 02:30:08;;;;;;;6.30;1.00;;;;;;;12.93;62.46;99514.07;104873;1290;24280;-86
2022/07/12 02:33:04;;;;;;;3.40;0.70;;;;;;;12.94;62.41;99512.05;105000;1290;22665;-88
2022/07/12 02:35:58;;;;;;;2.90;0.90;;;;;;;12.94;62.59;99511.31;104887;1290;22634;-86
2022/07/12 02:42:33;;;;;;;4.90;0.80;;;;;;;12.95;62.48;99515.16;104931;1290;24113;-87
2022/07/12 02:45:18;;;;;;;5.20;0.70;;;;;;;12.98;62.64;99516.56;104888;1287;24396;-87
2022/07/12 02:48:10;;;;;;;3.70;0.70;;;;;;;13.01;62.87;99515.80;104636;1291;22579;-86
2022/07/12 02:51:10;;;;;;;;;;;;;;;;;;;;;
2022/07/12 02:53:59;;;;;;;5.50;0.80;;;;;;;12.96;62.76;99520.80;104793;1281;25442;-86
2022/07/12 02:58:06;;;;;;;3.60;0.60;;;;;;;12.92;62.73;99516.61;106023;1274;25349;-86
2022/07/12 03:01:04;;;;;;;;;;;;;;;;;;;;;
2022/07/12 03:04:41;;;;;;;3.50;0.90;;;;;;;12.83;62.89;99522.73;105521;1284;22472;-86
2022/07/12 03:07:39;;;;;;;4.30;0.90;;;;;;;12.81;62.93;99523.77;105172;1287;24325;-87
2022/07/12 03:11:12;;;;;;;2.60;0.70;;;;;;;12.82;62.91;99526.52;104970;1288;23817;-88
2022/07/12 03:16:50;;;;;;;4.40;0.80;;;;;;;12.88;63.12;99520.15;106493;1271;24399;-88
2022/07/12 03:20:00;;;;;;;2.80;0.70;;;;;;;12.94;63.17;99522.38;106437;1272;22553;-86
2022/07/12 03:27:09;;;;;;;5.50;0.80;;;;;;;13.01;63.17;99520.44;106509;1271;22761;-88
2022/07/12 03:29:52;;;;;;;5.40;0.60;;;;;;;13.07;63.21;99525.20;106201;1272;25460;-87
2022/07/12 03:32:47;;;;;;;3.30;0.60;;;;;;;13.13;63.25;99522.76;106275;1271;25262;-87
2022/07/12 03:40:39;;;;;;;;;;;;;;;;;;;;;
2022/07/12 03:44:13;;;;;;;;;;;;;;;;;;;;;
2022/07/12 03:46:45;;;;;;;1.90;0.60;;;;;;;13.39;63.44;99521.21;105955;1277;22556;-86
2022/07/12 03:49:14;;;;;;;5.00;0.70;;;;;;;13.39;63.38;99520.79;105598;1278;22535;-86
2022/07/12 03:52:03;;;;;;;6.20;1.00;;;;;;;13.41;63.42;99520.68;105533;1278;22544;-87
2022/07/12 03:54:31;;;;;;;5.40;0.70;;;;;;;13.42;63.41;99519.86;105711;1278;24105;-86
2022/07/12 04:01:09;;;;;;;3.50;0.50;;;;;;;13.41;63.59;99515.27;104756;1284;24213;-86
2022/07/12 04:03:43;;;;;;;3.40;0.60;;;;;;;13.45;63.47;99516.81;105099;1284;23976;-87
2022/07/12 04:06:13;;;;;;;3.70;0.70;;;;;;;13.50;63.48;99516.92;105344;1284;22705;-87
2022/07/12 04:08:44;;;;;;;3.80;0.60;;;;;;;13.59;63.66;99517.16;105201;1284;24212;-88
2022/07/12 04:11:14;;;;;;;3.50;0.60;;;;;;;13.60;63.50;99517.60;104896;1284;22897;-88
2022/07/12 04:13:42;;;;;;;3.80;0.70;;;;;;;13.57;63.50;99522.09;105020;1284;22715;-91
2022/07/12 04:21:18;;;;;;;2.60;0.60;;;;;;;13.58;63.52;99513.31;105697;1284;22598;-86
2022/07/12 04:23:58;;;;;;;3.20;0.60;;;;;;;13.58;63.52;99513.07;105363;1284;24272;-89
2022/07/12 04:26:47;;;;;;;6.20;0.90;;;;;;;13.57;63.55;99512.66;105477;1282;24285;-88
2022/07/12 04:29:35;;;;;;;2.50;0.50;;;;;;;13.54;63.65;99506.95;105041;1284;22497;-88
2022/07/12 04:32:42;;;;;;;4.00;0.60;;;;;;;13.52;63.63;99506.95;105924;1278;26067;-85
2022/07/12 04:35:30;;;;;;;3.60;0.80;;;;;;;13.51;63.71;99510.56;105581;1280;23052;-88
2022/07/12 04:38:03;;;;;;;4.10;0.90;;;;;;;13.49;63.59;99509.83;105579;1280;25568;-86
2022/07/12 04:40:34;;;;;;;2.30;0.70;;;;;;;13.53;63.71;99513.97;105716;1281;24679;-85
2022/07/12 04:43:02;;;;;;;7.40;0.70;;;;;;;13.61;63.67;99513.73;105766;1279;22576;-86
2022/07/12 04:45:43;;;;;;;7.30;0.90;;;;;;;13.69;63.74;99517.23;105642;1279;22665;-86
2022/07/12 04:48:12;;;;;;;6.10;0.80;;;;;;;13.85;63.83;99520.27;105641;1280;23956;-86
2022/07/12 04:50:43;;;;;;;8.00;0.80;;;;;;;14.00;63.67;99521.63;105552;1279;22493;-87
2022/07/12 04:53:21;;;;;;;5.20;0.80;;;;;;;14.22;63.50;99523.61;105603;1279;22835;-86
2022/07/12 04:55:48;;;;;;;4.90;0.80;;;;;;;14.41;63.49;99519.06;105729;1279;22696;-89
2022/07/12 04:58:15;;;;;;;5.10;1.20;;;;;;;14.53;63.44;99518.69;105732;1279;22728;-89
2022/07/12 05:00:50;;;;;;;4.70;1.00;;;;;;;14.65;63.49;99522.20;106131;1279;22706;-89
2022/07/12 05:03:26;;;;;;;5.60;0.80;;;;;;;14.93;63.36;99519.88;105753;1279;25193;-88
2022/07/12 05:06:05;;;;;;;4.70;0.80;;;;;;;15.30;63.51;99518.71;105818;1280;25333;-87
2022/07/12 05:08:34;;;;;;;6.00;0.70;;;;;;;15.68;63.46;99521.23;105690;1280;23917;-87
2022/07/12 05:11:15;;;;;;;5.20;0.80;;;;;;;15.99;63.18;99521.77;106257;1274;22489;-85
2022/07/12 05:14:03;;;;;;;6.80;0.80;;;;;;;16.24;63.29;99521.26;106256;1271;24199;-88
2022/07/12 05:16:39;;;;;;;6.00;0.90;;;;;;;16.41;62.94;99522.94;106352;1271;22814;-88
2022/07/12 05:19:08;;;;;;;3.10;0.70;;;;;;;16.59;62.90;99522.10;106178;1272;23094;-88
2022/07/12 05:21:46;;;;;;;4.20;0.60;;;;;;;16.78;62.52;99525.92;106235;1271;25484;-89
2022/07/12 05:24:47;;;;;;;6.50;0.80;;;;;;;16.99;62.35;99527.44;106326;1271;25289;-90
2022/07/12 05:27:41;;;;;;;4.90;0.80;;;;;;;17.15;62.21;99528.67;106169;1273;22726;-88
2022/07/12 05:30:30;;;;;;;;;;;;;;;;;;;;;
2022/07/12 05:33:10;;;;;;;3.50;0.80;;;;;;;17.39;62.13;99532.77;106364;1273;22741;-90
2022/07/12 05:35:57;;;;;;;4.20;0.50;;;;;;;17.50;61.87;99537.97;106143;1279;22834;-86
2022/07/12 05:38:41;;;;;;;5.80;0.60;;;;;;;17.59;62.03;99534.64;105593;1280;25353;-87
2022/07/12 05:41:13;;;;;;;4.30;0.60;;;;;;;17.73;61.93;99535.73;105588;1281;22563;-92
2022/07/12 05:43:54;;;;;;;7.80;0.60;;;;;;;17.88;62.26;99537.15;106001;1281;27007;-88
2022/07/12 05:46:41;;;;;;;2.40;0.50;;;;;;;18.13;62.29;99532.23;105857;1279;23199;-87
2022/07/12 05:53:32;;;;;;;1.90;0.50;;;;;;;18.35;61.88;99532.44;105704;1281;24208;-88
2022/07/12 06:00:19;;;;;;;2.00;0.40;;;;;;;18.57;61.51;99521.86;105192;1287;25379;-86
2022/07/12 06:02:54;;;;;;;4.20;0.50;;;;;;;18.64;61.54;99523.65;105041;1287;24600;-87
2022/07/12 06:09:27;;;;;;;;;;;;;;;;;;;;;
2022/07/12 06:13:00;;;;;;;2.30;0.50;;;;;;;18.73;60.94;99520.84;105219;1287;22567;-87
2022/07/12 06:15:47;;;;;;;3.00;0.50;;;;;;;18.71;60.31;99521.77;105320;1284;22623;-88
2022/07/12 06:18:23;;;;;;;2.80;0.50;;;;;;;18.70;60.65;99519.91;105214;1285;26490;-86
2022/07/12 06:21:42;;;;;;;3.30;0.50;;;;;;;18.80;60.61;99517.77;105173;1288;23873;-86
2022/07/12 06:24:40;;;;;;;;;;;;;;;;;;;;;
2022/07/12 06:28:07;;;;;;;2.80;0.60;;;;;;;19.02;60.56;99510.95;104254;1297;24360;-87
2022/07/12 06:35:18;;;;;;;2.10;0.50;;;;;;;19.44;60.15;99511.03;103968;1298;22884;-86
2022/07/12 06:37:59;;;;;;;3.20;0.60;;;;;;;19.56;60.26;99506.17;104303;1294;22557;-87
2022/07/12 06:40:42;;;;;;;3.70;0.70;;;;;;;19.65;59.79;99502.30;104361;1294;24230;-86
2022/07/12 06:43:27;;;;;;;5.00;0.60;;;;;;;19.75;59.56;99502.83;104460;1293;24512;-86
2022/07/12 06:45:57;;;;;;;5.90;0.60;;;;;;;19.87;59.75;99498.53;104340;1294;22582;-91
2022/07/12 06:48:38;;;;;;;3.30;0.60;;;;;;;19.95;59.50;99499.06;104358;1294;24245;-84
2022/07/12 06:52:19;;;;;;;5.40;1.00;;;;;;;20.13;58.88;99504.11;104410;1297;22605;-89
2022/07/12 06:59:06;;;;;;;4.10;0.70;;;;;;;20.23;59.02;99508.40;104883;1290;24371;-86
2022/07/12 07:01:33;;;;;;;4.40;0.60;;;;;;;20.33;58.56;99505.41;104680;1291;23545;-84
2022/07/12 07:09:09;;;;;;;2.90;0.70;;;;;;;20.62;58.57;99495.80;104371;1293;22586;-85
2022/07/12 07:12:03;;;;;;;4.70;0.60;;;;;;;20.78;58.77;99494.83;104554;1290;24259;-87
2022/07/12 07:15:07;;;;;;;;;;;;;;;;;;;;;
2022/07/12 07:25:26;;;;;;;3.10;0.70;;;;;;;20.77;56.86;99493.30;104078;1297;22667;-88
2022/07/12 07:32:56;;;;;;;3.10;0.50;;;;;;;20.79;56.66;99498.54;103828;1300;22599;-84
2022/07/12 07:35:59;;;;;;;3.70;0.80;;;;;;;20.50;56.98;99498.96;103440;1303;22611;-88
2022/07/12 07:39:17;;;;;;;;;;;;;;;;;;;;;
2022/07/12 07:49:18;;;;;;;3.60;0.70;;;;;;;20.95;56.60;99494.03;103154;1305;23158;-86
2022/07/12 07:53:09;;;;;;;4.00;0.60;;;;;;;21.36;56.89;99493.02;103222;1305;25352;-86
2022/07/12 07:56:02;;;;;;;3.20;0.70;;;;;;;21.65;55.86;99492.94;103348;1306;22612;-84
2022/07/12 07:58:28;;;;;;;2.70;0.80;;;;;;;21.79;55.73;99493.16;103383;1305;25526;-86
2022/07/12 08:00:59;;;;;;;3.70;0.90;;;;;;;21.96;55.61;99494.36;103339;1303;24260;-85
2022/07/12 08:03:47;;;;;;;;;;;;;;;;;;;;;
2022/07/12 08:06:24;;;;;;;2.70;0.60;;;;;;;21.91;54.10;99495.29;104197;1294;22675;-85
2022/07/12 08:08:56;;;;;;;2.90;0.70;;;;;;;21.75;54.90;99494.14;104154;1288;24259;-86
2022/07/12 08:12:15;;;;;;;2.70;0.50;;;;;;;21.57;55.18;99498.13;104552;1287;22578;-86
2022/07/12 08:14:57;;;;;;;4.80;0.60;;;;;;;21.97;55.30;99497.33;104874;1284;22537;-85
2022/07/12 08:17:29;;;;;;;4.00;0.70;;;;;;;22.31;55.04;99493.08;105054;1285;22724;-88
2022/07/12 08:20:00;;;;;;;2.20;0.80;;;;;;;22.57;54.36;99491.95;105019;1285;22557;-86
2022/07/12 08:22:34;;;;;;;3.00;0.80;;;;;;;22.96;54.64;99492.46;105377;1278;26262;-85
2022/07/12 08:25:06;;;;;;;3.30;0.60;;;;;;;23.21;54.63;99493.19;105714;1278;23216;-85
2022/07/12 08:27:34;;;;;;;3.80;0.60;;;;;;;23.02;53.55;99494.33;106397;1277;22544;-86
2022/07/12 08:30:15;;;;;;;3.70;0.80;;;;;;;22.78;53.24;99497.61;105805;1278;25343;-86
2022/07/12 08:33:00;;;;;;;3.80;0.80;;;;;;;22.41;53.00;99499.23;106108;1276;22581;-85
2022/07/12 08:35:42;;;;;;;2.90;0.60;;;;;;;22.07;53.12;99495.11;105769;1280;25553;-85
2022/07/12 08:38:10;;;;;;;4.00;0.90;;;;;;;21.84;53.47;99496.98;105703;1278;22560;-85
2022/07/12 08:40:52;;;;;;;4.40;0.70;;;;;;;21.71;53.34;99498.20;105871;1278;24262;-86
2022/07/12 08:43:22;;;;;;;3.70;0.80;;;;;;;21.61;52.90;99494.80;105761;1279;25238;-85
2022/07/12 08:46:12;;;;;;;2.10;0.50;;;;;;;21.74;53.28;99499.34;105774;1278;24271;-87
2022/07/12 08:48:43;;;;;;;3.10;0.70;;;;;;;22.06;52.83;99490.84;105982;1274;24253;-84
2022/07/12 08:51:14;;;;;;;5.40;1.10;;;;;;;22.08;52.90;99494.23;106052;1274;22535;-86
2022/07/12 08:53:49;;;;;;;3.80;0.60;;;;;;;22.08;52.82;99492.20;106268;1273;25352;-85
2022/07/12 08:56:47;;;;;;;3.30;0.60;;;;;;;22.02;52.37;99490.87;106156;1273;22540;-85
2022/07/12 08:59:27;;;;;;;4.70;0.80;;;;;;;21.99;52.53;99492.48;106063;1273;22534;-86
2022/07/12 09:01:54;;;;;;;3.80;0.80;;;;;;;22.05;52.95;99495.46;106150;1273;24208;-86
2022/07/12 09:04:24;;;;;;;4.20;0.90;;;;;;;22.26;52.63;99490.40;106223;1274;22537;-86
2022/07/12 09:06:59;;;;;;;3.00;0.70;;;;;;;22.50;52.68;99488.51;106225;1274;24395;-86
2022/07/12 09:09:30;;;;;;;3.90;0.80;;;;;;;22.66;52.54;99494.33;106481;1274;24205;-87
2022/07/12 09:12:27;;;;;;;5.80;0.80;;;;;;;22.69;52.09;99494.81;106323;1274;22544;-84
2022/07/12 09:15:21;;;;;;;5.40;1.20;;;;;;;22.68;51.92;99494.81;106302;1274;22616;-87
2022/07/12 09:18:42;;;;;;;4.20;0.90;;;;;;;23.12;52.24;99492.36;106241;1271;25497;-86
2022/07/12 09:21:21;;;;;;;2.80;0.60;;;;;;;23.81;51.51;99494.60;106198;1274;25340;-85
2022/07/12 09:23:55;;;;;;;2.20;0.60;;;;;;;23.71;50.14;99495.03;106351;1271;22992;-87
2022/07/12 09:26:24;;;;;;;2.50;0.70;;;;;;;23.31;50.65;99491.81;106364;1274;22553;-88
2022/07/12 09:29:13;;;;;;;3.80;0.70;;;;;;;22.93;51.14;99495.12;106180;1271;25538;-84
2022/07/12 09:37:44;;;;;;;5.80;0.70;;;;;;;22.22;50.19;99498.65;106347;1274;25242;-86
2022/07/12 09:40:18;;;;;;;6.40;0.70;;;;;;;22.11;50.31;99495.51;106412;1271;22543;-86
2022/07/12 09:42:49;;;;;;;3.20;0.70;;;;;;;21.89;50.15;99497.29;106481;1271;22545;-85
2022/07/12 09:45:23;;;;;;;2.70;0.70;;;;;;;21.63;50.54;99494.59;106218;1271;22525;-86
2022/07/12 09:47:57;;;;;;;5.90;0.90;;;;;;;21.43;50.18;99493.21;106324;1271;25479;-86
2022/07/12 09:50:33;;;;;;;3.70;0.70;;;;;;;21.51;50.93;99490.48;106425;1271;25595;-84
2022/07/12 09:53:20;;;;;;;;;;;;;;;;;;;;;
2022/07/12 09:56:56;;;;;;;3.50;0.80;;;;;;;22.07;50.27;99485.82;106498;1271;22555;-86
2022/07/12 09:59:34;;;;;;;3.50;0.80;;;;;;;21.91;50.37;99489.95;106335;1271;24212;-84
2022/07/12 10:02:15;;;;;;;4.40;0.80;;;;;;;21.74;50.26;99490.11;106321;1271;22886;-86
2022/07/12 10:04:54;;;;;;;3.50;0.90;;;;;;;21.72;50.08;99490.73;106405;1271;22564;-84
2022/07/12 10:07:27;;;;;;;3.20;0.80;;;;;;;22.16;50.53;99490.99;106304;1272;25490;-84
2022/07/12 10:09:58;;;;;;;2.30;0.80;;;;;;;22.63;49.97;99487.23;106291;1273;25340;-84
2022/07/12 10:12:34;;;;;;;3.30;0.90;;;;;;;23.15;49.92;99483.59;106548;1271;25219;-87
2022/07/12 10:15:09;;;;;;;3.60;1.00;;;;;;;23.34;48.96;99484.55;106340;1271;22596;-86
2022/07/12 10:17:51;;;;;;;2.90;0.90;;;;;;;23.03;49.24;99476.24;106422;1271;22548;-87
2022/07/12 10:20:27;;;;;;;4.20;0.80;;;;;;;22.79;49.43;99472.27;106475;1271;25396;-86
2022/07/12 10:23:41;;;;;;;2.90;0.80;;;;;;;22.60;49.15;99481.08;106545;1271;22528;-85
2022/07/12 10:26:16;;;;;;;5.40;0.80;;;;;;;22.34;49.27;99481.30;105860;1280;24410;-87
2022/07/12 10:29:09;;;;;;;2.60;0.70;;;;;;;22.26;49.27;99485.36;106021;1280;22611;-83
2022/07/12 10:32:48;;;;;;;4.70;0.70;;;;;;;22.77;48.65;99482.70;105851;1280;22546;-85
2022/07/12 10:35:25;;;;;;;2.20;0.60;;;;;;;22.74;48.66;99484.09;105793;1279;24435;-86
2022/07/12 10:38:28;;;;;;;1.90;0.50;;;;;;;23.07;48.53;99482.11;105548;1279;25387;-85
2022/07/12 10:41:28;;;;;;;2.60;0.70;;;;;;;23.03;48.57;99486.56;105571;1279;21831;-84
2022/07/12 10:44:10;;;;;;;4.80;0.90;;;;;;;22.89;48.69;99491.67;105832;1279;25408;-84
2022/07/12 10:47:01;;;;;;;3.30;0.80;;;;;;;22.74;48.93;99491.16;105591;1282;22543;-86
2022/07/12 10:50:03;;;;;;;;;;;;;;;;;;;;;
2022/07/12 10:52:46;;;;;;;3.50;0.70;;;;;;;23.23;48.83;99488.02;105719;1280;24335;-86
2022/07/12 10:55:20;;;;;;;2.90;0.60;;;;;;;23.09;49.04;99492.79;105724;1281;25394;-85
2022/07/12 10:58:09;;;;;;;3.20;0.60;;;;;;;22.93;48.14;99499.77;105576;1280;23296;-84
2022/07/12 11:00:39;;;;;;;2.60;0.40;;;;;;;22.65;48.46;99500.96;105704;1281;22582;-87
2022/07/12 11:03:17;;;;;;;3.20;0.50;;;;;;;22.57;48.78;99496.77;105904;1273;24358;-85
2022/07/12 11:05:50;;;;;;;1.80;0.50;;;;;;;22.54;48.39;99496.92;106237;1274;25402;-84
2022/07/12 11:08:22;;;;;;;3.40;0.80;;;;;;;22.48;48.71;99494.28;106267;1273;22661;-85
2022/07/12 11:11:04;;;;;;;3.60;0.50;;;;;;;22.47;48.57;99495.82;106219;1274;22543;-85
2022/07/12 11:13:49;;;;;;;3.90;0.70;;;;;;;22.50;48.64;99488.54;106247;1274;22653;-85
2022/07/12 11:16:29;;;;;;;3.60;0.60;;;;;;;22.93;48.76;99483.75;106223;1275;22609;-83
2022/07/12 11:18:56;;;;;;;4.60;0.40;;;;;;;23.37;48.22;99479.67;106100;1274;22700;-85
2022/07/12 11:21:40;;;;;;;;;;;;;;;;;;;;;
2022/07/12 11:24:40;;;;;;;;;;;;;;;;;;;;;
2022/07/12 11:27:18;;;;;;;2.20;0.40;;;;;;;23.21;47.49;99493.56;106391;1271;22632;-84
2022/07/12 11:30:32;;;;;;;3.20;0.60;;;;;;;23.14;47.26;99491.98;106358;1271;22575;-84
2022/07/12 11:33:16;;;;;;;3.50;0.50;;;;;;;23.18;47.96;99477.54;105813;1279;23678;-88
2022/07/12 11:35:50;;;;;;;2.50;0.50;;;;;;;23.74;47.41;99476.63;105722;1280;22665;-85
2022/07/12 11:38:48;;;;;;;1.80;0.40;;;;;;;24.36;47.55;99471.94;105770;1280;22573;-85
2022/07/12 11:41:40;;;;;;;2.60;0.50;;;;;;;24.62;47.24;99466.16;105517;1282;25513;-84
2022/07/12 11:44:47;;;;;;;3.10;0.50;;;;;;;24.55;46.92;99460.61;105425;1279;22567;-85
2022/07/12 11:47:22;;;;;;;3.70;0.50;;;;;;;24.62;46.37;99464.45;105799;1279;23001;-86
2022/07/12 11:49:59;;;;;;;1.90;0.50;;;;;;;24.51;46.57;99463.77;105727;1279;22733;-82
2022/07/12 11:53:00;;;;;;;1.40;0.50;;;;;;;24.31;46.21;99460.45;101710;1281;5414605;-85
2022/07/12 12:00:11;;;;;;;1.90;0.40;;;;;;;24.12;47.09;99469.83;105209;1285;25573;-84
2022/07/12 12:03:05;;;;;;;2.20;0.40;;;;;;;24.41;46.60;99469.21;104830;1285;25508;-86
2022/07/12 12:05:40;;;;;;;3.10;0.80;;;;;;;24.71;46.68;99464.21;104867;1285;25463;-86
2022/07/12 12:08:10;;;;;;;3.90;0.80;;;;;;;24.91;45.97;99454.79;105088;1279;22747;-84
2022/07/12 12:10:43;;;;;;;2.80;0.50;;;;;;;25.01;46.25;99448.56;105585;1280;24245;-87
2022/07/12 12:13:41;;;;;;;3.00;0.50;;;;;;;25.28;45.87;99442.50;105655;1285;22550;-84
2022/07/12 12:16:20;;;;;;;3.80;0.50;;;;;;;25.21;46.45;99440.66;105300;1285;22572;-89
2022/07/12 12:19:00;;;;;;;1.70;0.30;;;;;;;24.89;45.72;99440.13;105439;1285;22565;-85
2022/07/12 12:21:34;;;;;;;2.90;0.50;;;;;;;24.41;45.54;99446.98;105516;1286;22659;-82
2022/07/12 12:24:40;;;;;;;;;;;;;;;;;;;;;
2022/07/12 12:27:30;;;;;;;1.20;0.30;;;;;;;24.94;46.08;99445.33;105402;1285;22774;-85
2022/07/12 12:30:23;;;;;;;1.40;0.40;;;;;;;25.20;45.25;99440.03;105062;1288;22553;-88
2022/07/12 12:33:06;;;;;;;1.70;0.40;;;;;;;25.39;45.57;99435.16;104908;1285;22582;-89
2022/07/12 12:35:39;;;;;;;2.00;0.60;;;;;;;25.78;45.80;99430.66;105155;1282;22541;-87
2022/07/12 12:38:25;;;;;;;1.70;0.50;;;;;;;26.04;45.58;99429.20;105425;1282;25236;-88
2022/07/12 12:41:01;;;;;;;1.20;0.40;;;;;;;25.72;45.32;99431.40;105608;1281;22792;-85
2022/07/12 12:43:33;;;;;;;2.80;0.50;;;;;;;25.21;44.56;99440.07;105841;1281;22714;-85
2022/07/12 12:46:06;;;;;;;2.40;0.50;;;;;;;24.67;44.98;99446.72;105662;1282;24366;-86
2022/07/12 12:48:36;;;;;;;2.90;0.50;;;;;;;24.18;45.30;99449.33;105815;1282;24307;-87
2022/07/12 12:51:12;;;;;;;6.10;0.50;;;;;;;23.75;44.87;99448.02;106065;1273;24399;-86
2022/07/12 12:53:43;;;;;;;4.60;0.40;;;;;;;23.65;45.21;99447.44;106466;1273;22577;-88
2022/07/12 12:56:17;;;;;;;2.00;0.40;;;;;;;23.52;45.58;99444.18;106233;1274;24367;-84
2022/07/12 12:58:51;;;;;;;4.00;0.70;;;;;;;23.54;45.42;99442.61;106151;1274;24190;-85
2022/07/12 13:01:24;;;;;;;2.50;0.60;;;;;;;23.76;45.08;99438.05;106139;1274;25231;-84
2022/07/12 13:03:56;;;;;;;1.80;0.40;;;;;;;24.03;44.88;99430.04;106335;1273;22537;-86
2022/07/12 13:06:33;;;;;;;0.90;0.40;;;;;;;24.29;45.13;99425.54;106022;1274;24360;-84
2022/07/12 13:09:06;;;;;;;1.60;0.50;;;;;;;24.50;44.32;99420.09;106490;1274;22666;-85
2022/07/12 13:11:36;;;;;;;2.10;0.40;;;;;;;24.63;44.22;99420.34;106045;1274;24240;-85
2022/07/12 13:14:11;;;;;;;1.30;0.40;;;;;;;24.60;44.42;99419.80;106069;1274;25543;-87
2022/07/12 13:16:48;;;;;;;1.20;0.40;;;;;;;24.70;44.23;99413.84;106187;1274;22667;-86
2022/07/12 13:19:21;;;;;;;1.20;0.20;;;;;;;24.94;44.47;99414.90;106194;1274;22564;-87
2022/07/12 13:21:48;;;;;;;2.70;0.40;;;;;;;25.16;43.89;99411.94;106072;1273;24392;-84
2022/07/12 13:24:20;;;;;;;2.70;0.40;;;;;;;25.43;44.17;99409.70;106139;1274;23026;-87
2022/07/12 13:26:55;;;;;;;1.20;0.40;;;;;;;25.60;42.42;99410.55;106471;1274;22557;-88
2022/07/12 13:29:24;;;;;;;2.70;0.50;;;;;;;25.35;42.88;99408.23;106086;1274;22577;-86
2022/07/12 13:31:59;;;;;;;1.10;0.30;;;;;;;25.35;43.37;99408.92;106204;1274;22546;-86
2022/07/12 13:34:29;;;;;;;3.50;0.40;;;;;;;25.50;42.92;99409.13;106219;1274;24127;-84
2022/07/12 13:37:04;;;;;;;0.50;0.30;;;;;;;25.67;43.30;99411.54;106192;1273;24240;-85
2022/07/12 13:42:22;;;;;;;1.00;0.40;;;;;;;25.75;41.78;99407.58;106206;1274;25703;-87
2022/07/12 13:44:55;;;;;;;3.30;0.40;;;;;;;25.79;41.75;99406.88;106426;1274;22609;-85
2022/07/12 13:47:28;;;;;;;0.90;0.30;;;;;;;25.94;41.79;99404.50;106130;1274;22548;-86
2022/07/12 13:50:10;;;;;;;2.10;0.40;;;;;;;26.09;41.67;99397.22;106292;1273;22550;-86
2022/07/12 13:52:48;;;;;;;1.20;0.40;;;;;;;26.19;42.11;99394.84;106147;1274;23065;-87
2022/07/12 13:55:23;;;;;;;1.50;0.50;;;;;;;26.11;42.47;99402.34;106388;1273;22719;-86
2022/07/12 13:58:00;;;;;;;2.00;0.50;;;;;;;26.31;41.70;99400.96;106256;1274;22636;-86
2022/07/12 14:00:33;;;;;;;1.70;0.50;;;;;;;26.32;41.59;99397.13;106435;1274;23452;-86
2022/07/12 14:03:03;;;;;;;1.70;0.50;;;;;;;26.31;41.46;99398.89;106168;1273;22564;-84
2022/07/12 14:05:44;;;;;;;2.50;0.30;;;;;;;26.35;41.20;99393.77;106395;1274;22534;-86
2022/07/12 14:08:17;;;;;;;2.00;0.30;;;;;;;26.31;41.55;99395.06;106320;1273;25586;-87
2022/07/12 14:10:47;;;;;;;1.70;0.40;;;;;;;25.99;41.43;99399.06;106249;1274;22841;-86
2022/07/12 14:13:18;;;;;;;0.80;0.30;;;;;;;25.57;41.30;99400.27;106248;1274;22990;-86
2022/07/12 14:15:50;;;;;;;3.50;0.40;;;;;;;25.35;41.53;99402.02;106200;1274;23941;-87
2022/07/12 14:18:19;;;;;;;1.90;0.40;;;;;;;25.63;40.94;99400.93;106112;1274;24326;-87
2022/07/12 14:20:52;;;;;;;0.60;0.40;;;;;;;25.88;41.28;99404.23;106360;1274;22539;-86
2022/07/12 14:23:21;;;;;;;3.60;0.50;;;;;;;26.22;41.18;99396.46;106323;1274;22789;-88
2022/07/12 14:25:54;;;;;;;2.10;0.40;;;;;;;26.61;41.16;99393.44;106261;1273;26475;-85
2022/07/12 14:28:32;;;;;;;2.00;0.30;;;;;;;26.92;40.62;99391.58;106198;1274;25313;-87
2022/07/12 14:31:04;;;;;;;1.50;0.40;;;;;;;26.76;40.26;99394.95;106221;1274;25929;-87
2022/07/12 14:33:56;;;;;;;1.20;0.30;;;;;;;26.34;40.55;99395.59;106270;1273;25061;-89
2022/07/12 14:36:29;;;;;;;1.90;0.40;;;;;;;26.08;40.39;99393.05;106077;1273;25440;-84
2022/07/12 14:39:02;;;;;;;1.30;0.40;;;;;;;26.24;40.68;99385.89;106275;1273;22536;-89
2022/07/12 14:41:40;;;;;;;1.10;0.30;;;;;;;26.44;40.67;99384.10;106142;1277;22827;-85
2022/07/12 14:44:25;;;;;;;0.90;0.40;;;;;;;26.06;39.83;99387.52;106311;1273;22551;-86
2022/07/12 14:47:02;;;;;;;0.90;0.30;;;;;;;25.85;40.62;99384.25;106300;1273;22624;-85
2022/07/12 14:49:32;;;;;;;2.10;0.40;;;;;;;25.99;40.60;99385.55;106325;1274;22661;-87
2022/07/12 14:51:59;;;;;;;1.30;0.40;;;;;;;25.90;39.85;99388.19;106264;1274;22574;-86
2022/07/12 14:54:33;;;;;;;2.80;0.50;;;;;;;25.51;39.60;99383.90;106237;1274;24281;-87
2022/07/12 14:57:17;;;;;;;3.70;0.40;;;;;;;25.27;40.05;99382.86;106182;1274;24209;-91
2022/07/12 14:59:47;;;;;;;1.20;0.40;;;;;;;25.45;40.18;99384.52;106235;1273;22648;-86
2022/07/12 15:02:14;;;;;;;1.80;0.40;;;;;;;25.35;39.76;99379.30;106263;1274;25296;-87
2022/07/12 15:04:40;;;;;;;1.80;0.40;;;;;;;25.57;40.31;99376.67;106245;1274;24720;-83
2022/07/12 15:07:13;;;;;;;2.30;0.50;;;;;;;25.98;40.50;99369.79;106255;1273;22615;-89
2022/07/12 15:10:02;;;;;;;3.50;0.40;;;;;;;26.28;40.07;99368.44;106181;1274;22582;-83
2022/07/12 15:12:50;;;;;;;3.60;0.50;;;;;;;26.38;39.71;99370.29;106163;1273;22554;-86
2022/07/12 15:15:22;;;;;;;1.80;0.50;;;;;;;26.29;39.45;99365.48;106252;1274;22544;-87